Time;durP1;ratioP1;P1;durP2;ratioP2;P2;SDS_P1;SDS_P2;PMS_P1;PMS_P2;Temp;Humidity;BMP_temperature;BMP_pressure;BME280_temperature;BME280_humidity;BME280_pressure;Samples;Min_cycle;Max_cycle;Signal;HPM_P1;HPM_P2
2022/03/19 00:01:04;;;;;;;;;;;7.70;99.90;;;;;;5043235;28;19988;-79
2022/03/19 00:03:30;;;;;;;;;;;7.70;99.90;;;;;;5044401;28;19928;-79
2022/03/19 00:05:57;;;;;;;;;;;7.60;99.90;;;;;;5043893;28;19929;-79
2022/03/19 00:08:26;;;;;;;;;;;7.50;99.90;;;;;;5043561;28;19932;-78
2022/03/19 00:10:53;;;;;;;;;;;7.50;99.90;;;;;;5042517;28;19925;-79
2022/03/19 00:13:20;;;;;;;;;;;7.60;99.90;;;;;;5044702;28;19925;-79
2022/03/19 00:15:47;;;;;;;;;;;7.60;99.90;;;;;;5042724;28;19924;-79
2022/03/19 00:18:16;;;;;;;;;;;7.60;99.90;;;;;;5043348;28;19925;-79
2022/03/19 00:20:42;;;;;;;;;;;7.50;99.90;;;;;;5042395;28;19929;-78
2022/03/19 00:23:09;;;;;;;;;;;7.40;99.90;;;;;;5042510;28;19932;-78
2022/03/19 00:25:38;;;;;;;;;;;7.40;99.90;;;;;;5042789;28;20003;-79
2022/03/19 00:28:05;;;;;;;;;;;7.30;99.90;;;;;;5042278;28;19932;-81
2022/03/19 00:30:33;;;;;;;;;;;7.20;99.90;;;;;;5041242;28;20403;-79
2022/03/19 00:33:00;;;;;;;;;;;7.20;99.90;;;;;;5041874;28;19925;-79
2022/03/19 00:35:26;;;;;;;;;;;7.10;99.90;;;;;;5041645;28;19932;-78
2022/03/19 00:37:54;;;;;;;;;;;7.00;99.90;;;;;;5041922;28;19925;-78
2022/03/19 00:40:22;;;;;;;;;;;7.00;99.90;;;;;;5042308;28;19925;-79
2022/03/19 00:42:50;;;;;;;;;;;6.90;99.90;;;;;;5041329;28;19925;-78
2022/03/19 00:45:17;;;;;;;;;;;6.80;99.90;;;;;;5041775;28;19925;-79
2022/03/19 00:47:44;;;;;;;;;;;6.80;99.90;;;;;;5041096;28;19925;-78
2022/03/19 00:50:11;;;;;;;;;;;6.80;99.90;;;;;;5041829;28;20461;-80
2022/03/19 00:52:38;;;;;;;;;;;6.70;99.90;;;;;;5042415;28;19932;-78
2022/03/19 00:55:05;;;;;;;;;;;6.60;99.90;;;;;;5042849;28;19924;-80
2022/03/19 00:57:37;;;;;;;;;;;6.50;99.90;;;;;;5041635;28;19925;-78
2022/03/19 01:00:09;;;;;;;;;;;6.40;99.90;;;;;;5041139;28;19956;-78
2022/03/19 01:02:36;;;;;;;;;;;6.40;99.90;;;;;;5042674;28;19988;-77
2022/03/19 01:05:04;;;;;;;;;;;6.30;99.90;;;;;;5042383;28;19929;-79
2022/03/19 01:07:31;;;;;;;;;;;6.30;99.90;;;;;;5042733;28;19925;-79
2022/03/19 01:09:58;;;;;;;;;;;6.30;99.90;;;;;;5040842;28;19925;-80
2022/03/19 01:12:24;;;;;;;;;;;6.20;99.90;;;;;;5041646;28;19955;-78
2022/03/19 01:14:52;;;;;;;;;;;6.20;99.90;;;;;;5041576;28;19936;-78
2022/03/19 01:17:20;;;;;;;;;;;6.10;99.90;;;;;;5042226;28;19959;-78
2022/03/19 01:19:59;;;;;;;;;;;6.10;99.90;;;;;;5042008;28;19924;-79
2022/03/19 01:22:26;;;;;;;;;;;6.10;99.90;;;;;;5042834;28;19928;-78
2022/03/19 01:24:53;;;;;;;;;;;6.00;99.90;;;;;;5041087;28;19925;-78
2022/03/19 01:27:20;;;;;;;;;;;6.00;99.90;;;;;;5041558;28;19925;-78
2022/03/19 01:29:47;;;;;;;;;;;5.90;99.90;;;;;;5041897;28;19925;-79
2022/03/19 01:32:14;;;;;;;;;;;5.90;99.90;;;;;;5040676;28;19929;-78
2022/03/19 01:34:42;;;;;;;;;;;5.80;99.90;;;;;;5040466;28;19970;-78
2022/03/19 01:37:09;;;;;;;;;;;5.70;99.90;;;;;;5041294;28;19925;-79
2022/03/19 01:39:36;;;;;;;;;;;5.70;99.90;;;;;;5040044;28;19925;-78
2022/03/19 01:42:03;;;;;;;;;;;5.70;99.90;;;;;;5041420;28;19939;-78
2022/03/19 01:44:29;;;;;;;;;;;5.70;99.90;;;;;;5041584;28;19924;-78
2022/03/19 01:46:57;;;;;;;;;;;5.60;99.90;;;;;;5041873;28;19925;-78
2022/03/19 01:49:24;;;;;;;;;;;5.60;99.90;;;;;;5040791;28;20332;-79
2022/03/19 01:51:53;;;;;;;;;;;5.50;99.90;;;;;;5039641;28;19929;-79
2022/03/19 01:54:24;;;;;;;;;;;5.50;99.90;;;;;;5040324;28;19925;-79
2022/03/19 01:56:51;;;;;;;;;;;5.40;99.90;;;;;;5041284;28;20410;-78
2022/03/19 01:59:18;;;;;;;;;;;5.40;99.90;;;;;;5036751;28;19925;-79
2022/03/19 02:01:45;;;;;;;;;;;5.30;99.90;;;;;;5036209;28;19935;-77
2022/03/19 02:04:12;;;;;;;;;;;5.20;99.90;;;;;;5036064;28;19931;-79
2022/03/19 02:06:41;;;;;;;;;;;5.10;99.90;;;;;;5035770;28;19925;-77
2022/03/19 02:09:09;;;;;;;;;;;5.10;99.90;;;;;;5035870;28;19925;-78
2022/03/19 02:11:36;;;;;;;;;;;5.10;99.90;;;;;;5035896;28;19925;-77
2022/03/19 02:14:04;;;;;;;;;;;5.00;99.90;;;;;;5036008;28;20402;-78
2022/03/19 02:16:31;;;;;;;;;;;5.00;99.90;;;;;;5034817;28;20027;-78
2022/03/19 02:18:58;;;;;;;;;;;4.90;99.90;;;;;;5035040;28;19951;-77
2022/03/19 02:21:24;;;;;;;;;;;4.90;99.90;;;;;;5034946;28;19939;-77
2022/03/19 02:26:41;;;;;;;;;;;4.80;99.90;;;;;;5035560;28;19925;-78
2022/03/19 02:29:08;;;;;;;;;;;4.80;99.90;;;;;;5035524;28;19948;-78
2022/03/19 02:31:35;;;;;;;;;;;4.70;99.90;;;;;;5035889;28;19935;-77
2022/03/19 02:34:02;;;;;;;;;;;4.70;99.90;;;;;;5035245;28;19925;-78
2022/03/19 02:36:29;;;;;;;;;;;4.70;99.90;;;;;;5034753;28;19931;-78
2022/03/19 02:38:57;;;;;;;;;;;4.70;99.90;;;;;;5034847;28;19974;-77
2022/03/19 02:41:24;;;;;;;;;;;4.60;99.90;;;;;;5036185;28;19925;-78
2022/03/19 02:43:50;;;;;;;;;;;4.60;99.90;;;;;;5035211;28;19924;-78
2022/03/19 02:46:17;;;;;;;;;;;4.60;99.90;;;;;;5035027;28;19924;-77
2022/03/19 02:48:44;;;;;;;;;;;4.60;99.90;;;;;;5034903;28;19975;-79
2022/03/19 02:51:12;;;;;;;;;;;4.60;99.90;;;;;;5034740;28;20020;-77
2022/03/19 02:53:39;;;;;;;;;;;4.60;99.90;;;;;;5034445;28;19975;-76
2022/03/19 02:56:07;;;;;;;;;;;4.60;99.90;;;;;;5034989;28;19929;-76
2022/03/19 02:58:34;;;;;;;;;;;4.60;99.90;;;;;;5034570;28;19929;-77
2022/03/19 03:01:00;;;;;;;;;;;4.50;99.90;;;;;;5034191;28;19935;-78
2022/03/19 03:03:27;;;;;;;;;;;4.50;99.90;;;;;;5034403;28;19925;-78
2022/03/19 03:05:54;;;;;;;;;;;4.50;99.90;;;;;;5034825;28;19932;-78
2022/03/19 03:08:21;;;;;;;;;;;4.40;99.90;;;;;;5051060;22;19972;-76
2022/03/19 03:10:48;;;;;;;;;;;4.40;99.90;;;;;;5047452;28;19935;-78
2022/03/19 03:13:16;;;;;;;;;;;4.40;99.90;;;;;;5063796;28;20396;-78
2022/03/19 03:15:43;;;;;;;;;;;4.40;99.90;;;;;;5075477;28;19928;-78
2022/03/19 03:18:09;;;;;;;;;;;4.40;99.90;;;;;;5075028;28;19924;-79
2022/03/19 03:20:36;;;;;;;;;;;4.30;99.90;;;;;;5055187;28;20280;-78
2022/03/19 03:23:04;;;;;;;;;;;4.30;99.90;;;;;;5054703;28;19925;-78
2022/03/19 03:25:31;;;;;;;;;;;4.30;99.90;;;;;;5054890;28;19924;-79
2022/03/19 03:27:58;;;;;;;;;;;4.20;99.90;;;;;;5055044;28;19936;-78
2022/03/19 03:30:26;;;;;;;;;;;4.10;99.90;;;;;;5054522;28;19924;-78
2022/03/19 03:32:53;;;;;;;;;;;4.10;99.90;;;;;;5052760;28;19931;-79
2022/03/19 03:35:25;;;;;;;;;;;4.10;99.90;;;;;;5053658;28;20303;-80
2022/03/19 03:37:52;;;;;;;;;;;4.10;99.90;;;;;;5053581;28;19929;-78
2022/03/19 03:40:19;;;;;;;;;;;4.10;99.90;;;;;;5052977;28;19924;-78
2022/03/19 03:42:46;;;;;;;;;;;4.10;99.90;;;;;;5053194;28;20370;-78
2022/03/19 03:45:13;;;;;;;;;;;4.10;99.90;;;;;;5053333;28;19979;-78
2022/03/19 03:47:41;;;;;;;;;;;4.00;99.90;;;;;;5052808;28;19925;-79
2022/03/19 03:50:08;;;;;;;;;;;4.00;99.90;;;;;;5052859;28;19928;-79
2022/03/19 03:52:35;;;;;;;;;;;4.00;99.90;;;;;;5053162;28;19924;-79
2022/03/19 03:55:03;;;;;;;;;;;4.00;99.90;;;;;;5054638;28;20349;-79
2022/03/19 03:57:30;;;;;;;;;;;4.00;99.90;;;;;;5056827;28;19931;-78
2022/03/19 03:59:57;;;;;;;;;;;4.00;99.90;;;;;;5056087;28;19924;-78
2022/03/19 04:02:24;;;;;;;;;;;4.00;99.90;;;;;;5056736;28;19929;-78
2022/03/19 04:04:52;;;;;;;;;;;4.00;99.90;;;;;;5056694;28;20022;-79
2022/03/19 04:07:19;;;;;;;;;;;4.00;99.90;;;;;;5056330;28;19928;-79
2022/03/19 04:09:46;;;;;;;;;;;4.00;99.90;;;;;;5055987;28;19931;-78
2022/03/19 04:12:14;;;;;;;;;;;4.10;99.90;;;;;;5056383;28;19951;-78
2022/03/19 04:14:41;;;;;;;;;;;4.10;99.90;;;;;;5056300;28;19924;-79
2022/03/19 04:17:08;;;;;;;;;;;4.10;99.90;;;;;;5056696;28;19936;-79
2022/03/19 04:19:35;;;;;;;;;;;4.00;99.90;;;;;;5055816;28;19931;-78
2022/03/19 04:22:03;;;;;;;;;;;4.00;99.90;;;;;;5056404;28;20403;-79
2022/03/19 04:24:30;;;;;;;;;;;4.00;99.90;;;;;;5056438;28;20441;-78
2022/03/19 04:26:57;;;;;;;;;;;4.00;99.90;;;;;;5055931;28;19924;-78
2022/03/19 04:29:24;;;;;;;;;;;4.10;99.90;;;;;;5055825;28;19924;-78
2022/03/19 04:31:51;;;;;;;;;;;4.10;99.90;;;;;;5056087;28;19924;-79
2022/03/19 04:34:18;;;;;;;;;;;4.10;99.90;;;;;;5056055;28;19925;-76
2022/03/19 04:36:45;;;;;;;;;;;4.20;99.90;;;;;;5056246;28;19924;-78
2022/03/19 04:39:14;;;;;;;;;;;4.20;99.90;;;;;;5055078;28;19924;-79
2022/03/19 04:41:41;;;;;;;;;;;4.20;99.90;;;;;;5055340;28;19924;-78
2022/03/19 04:44:08;;;;;;;;;;;4.10;99.90;;;;;;5055945;28;19925;-77
2022/03/19 04:46:35;;;;;;;;;;;4.00;99.90;;;;;;5055694;28;20395;-78
2022/03/19 04:49:02;;;;;;;;;;;3.90;99.90;;;;;;5055158;28;19924;-78
2022/03/19 04:51:32;;;;;;;;;;;3.90;99.90;;;;;;5055708;28;19928;-79
2022/03/19 04:53:59;;;;;;;;;;;3.80;99.90;;;;;;5055555;28;19952;-78
2022/03/19 04:56:29;;;;;;;;;;;3.70;99.90;;;;;;5055362;28;19928;-78
2022/03/19 04:58:57;;;;;;;;;;;3.70;99.90;;;;;;5033061;28;19935;-78
2022/03/19 05:01:25;;;;;;;;;;;3.70;99.90;;;;;;5053019;28;20338;-77
2022/03/19 05:03:52;;;;;;;;;;;3.60;99.90;;;;;;5055281;28;19931;-79
2022/03/19 05:06:20;;;;;;;;;;;3.60;99.90;;;;;;5055081;28;19960;-78
2022/03/19 05:08:46;;;;;;;;;;;3.60;99.90;;;;;;5054615;28;19925;-79
2022/03/19 05:11:17;;;;;;;;;;;3.50;99.90;;;;;;5055241;28;19925;-77
2022/03/19 05:13:48;;;;;;;;;;;3.50;99.90;;;;;;5055194;28;19967;-80
2022/03/19 05:16:15;;;;;;;;;;;3.40;99.90;;;;;;5055173;28;19931;-80
2022/03/19 05:18:42;;;;;;;;;;;3.40;99.90;;;;;;5054696;28;19924;-79
2022/03/19 05:21:09;;;;;;;;;;;3.40;99.90;;;;;;5054779;28;19932;-78
2022/03/19 05:23:36;;;;;;;;;;;3.50;99.90;;;;;;5055013;28;19924;-78
2022/03/19 05:26:02;;;;;;;;;;;3.50;99.90;;;;;;5054806;28;19924;-78
2022/03/19 05:28:31;;;;;;;;;;;3.50;99.90;;;;;;5055070;28;20303;-78
2022/03/19 05:31:01;;;;;;;;;;;3.50;99.90;;;;;;5054448;28;20396;-78
2022/03/19 05:36:08;;;;;;;;;;;3.50;99.90;;;;;;5053412;28;20417;-77
2022/03/19 05:38:35;;;;;;;;;;;3.50;99.90;;;;;;5054592;28;19929;-80
2022/03/19 05:41:02;;;;;;;;;;;3.50;99.90;;;;;;5053988;28;19924;-78
2022/03/19 05:43:29;;;;;;;;;;;3.50;99.90;;;;;;5054357;28;19928;-77
2022/03/19 05:45:59;;;;;;;;;;;3.50;99.90;;;;;;5054564;28;19924;-77
2022/03/19 05:48:26;;;;;;;;;;;3.50;99.90;;;;;;5054622;28;19928;-78
2022/03/19 05:50:54;;;;;;;;;;;3.50;99.90;;;;;;5053966;28;19928;-78
2022/03/19 05:53:21;;;;;;;;;;;3.50;99.90;;;;;;5054699;28;19924;-78
2022/03/19 05:55:48;;;;;;;;;;;3.50;99.90;;;;;;5054066;28;20343;-80
2022/03/19 05:58:15;;;;;;;;;;;3.50;99.90;;;;;;5054000;28;19924;-78
2022/03/19 06:00:42;;;;;;;;;;;3.50;99.90;;;;;;5053337;28;19931;-78
2022/03/19 06:03:10;;;;;;;;;;;3.50;99.90;;;;;;5034505;28;19978;-77
2022/03/19 06:05:36;;;;;;;;;;;3.50;99.90;;;;;;5035167;28;19932;-77
2022/03/19 06:08:04;;;;;;;;;;;3.50;99.90;;;;;;5035120;28;20486;-78
2022/03/19 06:10:35;;;;;;;;;;;3.40;99.90;;;;;;5041538;28;19929;-76
2022/03/19 06:13:02;;;;;;;;;;;3.40;99.90;;;;;;5035176;28;19924;-78
2022/03/19 06:15:29;;;;;;;;;;;3.40;99.90;;;;;;5034497;28;19924;-84
2022/03/19 06:17:56;;;;;;;;;;;3.50;99.90;;;;;;5034549;28;19924;-78
2022/03/19 06:20:24;;;;;;;;;;;3.50;99.90;;;;;;5033949;28;19978;-78
2022/03/19 06:22:51;;;;;;;;;;;3.60;99.90;;;;;;5034691;28;19928;-78
2022/03/19 06:25:18;;;;;;;;;;;3.60;99.90;;;;;;5034534;28;19925;-77
2022/03/19 06:27:48;;;;;;;;;;;3.70;99.90;;;;;;5034046;28;20380;-78
2022/03/19 06:30:14;;;;;;;;;;;3.70;99.90;;;;;;5034014;28;20449;-76
2022/03/19 06:32:42;;;;;;;;;;;3.70;99.90;;;;;;5034416;28;20040;-78
2022/03/19 06:35:09;;;;;;;;;;;3.80;99.90;;;;;;5034391;28;20043;-78
2022/03/19 06:37:37;;;;;;;;;;;3.80;99.90;;;;;;5034119;28;20419;-78
2022/03/19 06:40:06;;;;;;;;;;;3.90;99.90;;;;;;5033544;28;20027;-78
2022/03/19 06:42:33;;;;;;;;;;;4.00;99.90;;;;;;5034067;28;19925;-78
2022/03/19 06:45:00;;;;;;;;;;;4.10;99.90;;;;;;5034287;28;19924;-77
2022/03/19 06:47:27;;;;;;;;;;;4.20;99.90;;;;;;5034330;28;19933;-78
2022/03/19 06:49:53;;;;;;;;;;;4.30;99.90;;;;;;5033459;28;20388;-77
2022/03/19 06:52:21;;;;;;;;;;;4.30;99.90;;;;;;5034239;28;19943;-78
2022/03/19 06:54:49;;;;;;;;;;;4.40;99.90;;;;;;5034141;28;19932;-78
2022/03/19 06:57:16;;;;;;;;;;;4.50;99.90;;;;;;5034301;28;19971;-78
2022/03/19 06:59:42;;;;;;;;;;;4.60;99.90;;;;;;5039222;28;20382;-78
2022/03/19 07:02:09;;;;;;;;;;;4.60;99.90;;;;;;5046077;28;20285;-79
2022/03/19 07:04:36;;;;;;;;;;;4.70;99.90;;;;;;5054027;28;19924;-78
2022/03/19 07:07:03;;;;;;;;;;;4.80;99.90;;;;;;5054459;28;19974;-79
2022/03/19 07:09:30;;;;;;;;;;;4.80;99.90;;;;;;5053330;28;19959;-77
2022/03/19 07:11:58;;;;;;;;;;;4.90;99.90;;;;;;5055492;28;19925;-79
2022/03/19 07:14:25;;;;;;;;;;;5.00;99.90;;;;;;5054104;28;20342;-78
2022/03/19 07:16:51;;;;;;;;;;;5.10;99.90;;;;;;5054089;28;19932;-75
2022/03/19 07:19:18;;;;;;;;;;;5.20;99.90;;;;;;5053460;28;19928;-77
2022/03/19 07:21:45;;;;;;;;;;;5.20;99.90;;;;;;5053782;28;19924;-76
2022/03/19 07:24:12;;;;;;;;;;;5.40;99.90;;;;;;5053873;28;19929;-77
2022/03/19 07:26:38;;;;;;;;;;;5.50;99.90;;;;;;5053761;28;19935;-76
2022/03/19 07:29:07;;;;;;;;;;;5.60;99.90;;;;;;5054456;28;19924;-76
2022/03/19 07:31:34;;;;;;;;;;;5.70;99.90;;;;;;5057877;28;20272;-76
2022/03/19 07:34:01;;;;;;;;;;;5.80;99.90;;;;;;5057222;28;19928;-77
2022/03/19 07:36:28;;;;;;;;;;;5.90;99.90;;;;;;5058064;28;19925;-78
2022/03/19 07:38:57;;;;;;;;;;;6.10;99.90;;;;;;5056855;28;20026;-78
2022/03/19 07:44:10;;;;;;;;;;;6.40;99.90;;;;;;5057376;28;20411;-77
2022/03/19 07:46:36;;;;;;;;;;;6.50;99.90;;;;;;5057744;28;19966;-77
2022/03/19 07:49:04;;;;;;;;;;;6.60;99.90;;;;;;5056872;28;19924;-75
2022/03/19 07:51:31;;;;;;;;;;;6.80;99.90;;;;;;5057716;28;19978;-76
2022/03/19 07:53:59;;;;;;;;;;;6.90;99.90;;;;;;5057949;28;19970;-76
2022/03/19 07:56:26;;;;;;;;;;;7.00;99.90;;;;;;5060036;28;19982;-79
2022/03/19 07:58:52;;;;;;;;;;;7.20;99.90;;;;;;5059457;28;20304;-79
2022/03/19 08:01:21;;;;;;;;;;;7.20;99.90;;;;;;5058743;28;19924;-78
2022/03/19 08:03:49;;;;;;;;;;;7.30;99.90;;;;;;5058167;28;19925;-77
2022/03/19 08:06:15;;;;;;;;;;;7.40;99.90;;;;;;5057497;28;19924;-77
2022/03/19 08:08:42;;;;;;;;;;;7.60;99.90;;;;;;5057278;28;19932;-79
2022/03/19 08:11:09;;;;;;;;;;;7.70;99.90;;;;;;5058368;28;19954;-77
2022/03/19 08:13:36;;;;;;;;;;;7.80;99.90;;;;;;5061127;28;19932;-80
2022/03/19 08:16:03;;;;;;;;;;;7.90;99.90;;;;;;5059445;28;19924;-79
2022/03/19 08:18:31;;;;;;;;;;;8.00;99.90;;;;;;5058459;28;19948;-80
2022/03/19 08:20:58;;;;;;;;;;;8.20;99.90;;;;;;5064356;28;19924;-81
2022/03/19 08:23:25;;;;;;;;;;;8.30;99.90;;;;;;5066124;28;19929;-83
2022/03/19 08:25:52;;;;;;;;;;;8.40;99.90;;;;;;5061342;28;19942;-80
2022/03/19 08:28:19;;;;;;;;;;;8.40;99.90;;;;;;5060948;28;19924;-80
2022/03/19 08:30:46;;;;;;;;;;;8.50;99.90;;;;;;5051589;28;19924;-81
2022/03/19 08:33:13;;;;;;;;;;;8.50;99.90;;;;;;5047379;28;20380;-79
2022/03/19 08:35:41;;;;;;;;;;;8.60;99.90;;;;;;5043305;28;19931;-80
2022/03/19 08:40:54;;;;;;;;;;;8.80;99.90;;;;;;5020971;28;19932;-79
2022/03/19 08:43:21;;;;;;;;;;;8.90;99.90;;;;;;5039701;28;19983;-78
2022/03/19 08:45:48;;;;;;;;;;;9.00;99.90;;;;;;5042429;28;19924;-83
2022/03/19 08:48:17;;;;;;;;;;;9.10;99.90;;;;;;5043837;28;19928;-80
2022/03/19 08:50:48;;;;;;;;;;;9.20;99.90;;;;;;5038543;28;20384;-80
2022/03/19 08:53:18;;;;;;;;;;;9.30;99.90;;;;;;5039335;28;20012;-80
2022/03/19 08:55:46;;;;;;;;;;;9.40;99.90;;;;;;5039000;28;19925;-80
2022/03/19 08:58:13;;;;;;;;;;;9.50;99.90;;;;;;5037537;28;19928;-81
2022/03/19 09:00:41;;;;;;;;;;;9.50;99.90;;;;;;5039619;28;19967;-79
2022/03/19 09:03:08;;;;;;;;;;;9.60;99.90;;;;;;5040760;28;19925;-81
2022/03/19 09:05:34;;;;;;;;;;;9.70;99.90;;;;;;5040809;28;19925;-80
2022/03/19 09:08:03;;;;;;;;;;;9.70;99.90;;;;;;5040077;28;19925;-81
2022/03/19 09:10:30;;;;;;;;;;;9.70;99.90;;;;;;5039397;28;19932;-80
2022/03/19 09:12:56;;;;;;;;;;;9.80;99.90;;;;;;5040277;28;20408;-80
2022/03/19 09:15:24;;;;;;;;;;;9.90;99.90;;;;;;5040709;28;19925;-80
2022/03/19 09:17:52;;;;;;;;;;;9.90;99.90;;;;;;5040897;28;19925;-79
2022/03/19 09:20:19;;;;;;;;;;;10.00;99.90;;;;;;5039178;28;20400;-80
2022/03/19 09:22:46;;;;;;;;;;;10.10;99.90;;;;;;5039871;28;19925;-80
2022/03/19 09:25:14;;;;;;;;;;;10.10;99.90;;;;;;5040860;28;20308;-81
2022/03/19 09:27:41;;;;;;;;;;;10.20;99.90;;;;;;5040102;28;19932;-80
2022/03/19 09:30:09;;;;;;;;;;;10.20;99.90;;;;;;5039871;28;19929;-80
2022/03/19 09:32:36;;;;;;;;;;;10.30;99.90;;;;;;5039246;28;19924;-79
2022/03/19 09:35:03;;;;;;;;;;;10.30;99.90;;;;;;5041089;28;19935;-81
2022/03/19 09:37:31;;;;;;;;;;;10.30;99.90;;;;;;5042427;28;19925;-79
2022/03/19 09:39:57;;;;;;;;;;;10.40;99.90;;;;;;5042014;28;19925;-81
2022/03/19 09:42:27;;;;;;;;;;;10.40;99.90;;;;;;5043485;28;19925;-79
2022/03/19 09:44:54;;;;;;;;;;;10.50;99.90;;;;;;5044223;28;19998;-81
2022/03/19 09:47:20;;;;;;;;;;;10.60;99.90;;;;;;5043467;28;20427;-80
2022/03/19 09:49:48;;;;;;;;;;;10.70;99.90;;;;;;5044337;28;19925;-81
2022/03/19 09:52:15;;;;;;;;;;;10.70;99.90;;;;;;5042927;28;19932;-80
2022/03/19 09:54:43;;;;;;;;;;;10.80;99.90;;;;;;5043270;28;19929;-80
2022/03/19 09:57:09;;;;;;;;;;;10.80;99.90;;;;;;5044552;28;19925;-81
2022/03/19 09:59:38;;;;;;;;;;;10.80;99.90;;;;;;5044674;28;19925;-80
2022/03/19 10:02:05;;;;;;;;;;;10.90;99.90;;;;;;5043246;28;19940;-82
2022/03/19 10:04:32;;;;;;;;;;;10.90;99.90;;;;;;5042542;28;19925;-81
2022/03/19 10:09:44;;;;;;;;;;;11.10;99.90;;;;;;5044207;28;19975;-81
2022/03/19 10:12:17;;;;;;;;;;;11.30;99.90;;;;;;5043903;28;19932;-80
2022/03/19 10:14:51;;;;;;;;;;;11.40;99.90;;;;;;5044990;28;20419;-81
2022/03/19 10:17:28;;;;;;;;;;;11.40;99.90;;;;;;5044737;28;19931;-81
2022/03/19 10:19:58;;;;;;;;;;;11.60;99.90;;;;;;5042802;28;20388;-81
2022/03/19 10:22:26;;;;;;;;;;;11.70;99.90;;;;;;5044413;28;20350;-82
2022/03/19 10:25:00;;;;;;;;;;;11.80;99.90;;;;;;5044965;28;19929;-81
2022/03/19 10:27:26;;;;;;;;;;;11.90;99.90;;;;;;5045114;28;20384;-81
2022/03/19 10:30:12;;;;;;;;;;;12.10;99.90;;;;;;5043984;28;19933;-81
2022/03/19 10:32:40;;;;;;;;;;;12.20;99.90;;;;;;5039466;28;19932;-78
2022/03/19 10:35:23;;;;;;;;;;;12.30;99.90;;;;;;5036918;28;19931;-81
2022/03/19 10:37:50;;;;;;;;;;;12.40;99.90;;;;;;5045150;28;20023;-82
2022/03/19 10:40:17;;;;;;;;;;;12.50;99.90;;;;;;5044723;28;19925;-82
2022/03/19 10:42:44;;;;;;;;;;;12.60;99.90;;;;;;5046586;28;19950;-81
2022/03/19 10:45:13;;;;;;;;;;;12.80;99.90;;;;;;5046668;28;19940;-81
2022/03/19 10:47:41;;;;;;;;;;;13.00;99.90;;;;;;5045269;28;19925;-81
2022/03/19 10:50:08;;;;;;;;;;;13.10;99.90;;;;;;5045270;28;19925;-82
2022/03/19 10:52:35;;;;;;;;;;;13.20;99.90;;;;;;5046351;28;19925;-82
2022/03/19 10:55:04;;;;;;;;;;;13.30;99.90;;;;;;5048013;28;19925;-82
2022/03/19 10:57:31;;;;;;;;;;;13.50;99.90;;;;;;5049553;28;19933;-81
2022/03/19 10:59:58;;;;;;;;;;;13.70;99.90;;;;;;5058424;28;19931;-83
2022/03/19 11:02:27;;;;;;;;;;;13.80;99.90;;;;;;5066435;28;19928;-81
2022/03/19 11:04:54;;;;;;;;;;;14.00;99.90;;;;;;5066701;28;19924;-81
2022/03/19 11:07:23;;;;;;;;;;;14.10;99.90;;;;;;5061693;28;19928;-80
2022/03/19 11:09:52;;;;;;;;;;;14.10;99.90;;;;;;5060486;28;19925;-79
2022/03/19 11:12:21;;;;;;;;;;;14.20;99.90;;;;;;5044452;28;19925;-81
2022/03/19 11:14:50;;;;;;;;;;;14.40;99.90;;;;;;5043292;28;19924;-80
2022/03/19 11:17:27;;;;;;;;;;;14.40;99.90;;;;;;5042359;28;19936;-79
2022/03/19 11:19:56;;;;;;;;;;;14.70;99.90;;;;;;5041928;28;19925;-80
2022/03/19 11:22:23;;;;;;;;;;;14.80;99.90;;;;;;5043575;28;19925;-79
2022/03/19 11:24:54;;;;;;;;;;;15.00;99.90;;;;;;5042762;28;19925;-80
2022/03/19 11:27:22;;;;;;;;;;;15.10;99.90;;;;;;5043912;28;19925;-80
2022/03/19 11:29:49;;;;;;;;;;;15.20;99.90;;;;;;5042670;28;19925;-80
2022/03/19 11:32:21;;;;;;;;;;;15.30;99.90;;;;;;5042615;28;19937;-80
2022/03/19 11:34:48;;;;;;;;;;;15.30;99.90;;;;;;5043092;28;19924;-80
2022/03/19 11:37:16;;;;;;;;;;;;;;;;;;5044656;28;19932;-79
2022/03/19 11:39:57;;;;;;;;;;;15.40;99.90;;;;;;5044314;28;19956;-82
2022/03/19 11:42:29;;;;;;;;;;;15.60;99.90;;;;;;5046791;28;19929;-80
2022/03/19 11:44:56;;;;;;;;;;;15.80;99.90;;;;;;5047671;28;19924;-79
2022/03/19 11:47:32;;;;;;;;;;;17.00;99.90;;;;;;5048261;28;19924;-81
2022/03/19 11:50:02;;;;;;;;;;;22.10;99.90;;;;;;5047178;28;19935;-80
2022/03/19 11:52:47;;;;;;;;;;;25.60;99.90;;;;;;5049785;28;19936;-81
2022/03/19 11:55:17;;;;;;;;;;;27.90;99.90;;;;;;5050375;28;19932;-79
2022/03/19 11:57:50;;;;;;;;;;;29.50;99.70;;;;;;5050744;28;19928;-82
2022/03/19 12:00:18;;;;;;;;;;;30.20;97.30;;;;;;5049070;28;19925;-81
2022/03/19 12:03:02;;;;;;;;;;;29.90;96.70;;;;;;5049636;28;20300;-80
2022/03/19 12:05:29;;;;;;;;;;;29.80;94.40;;;;;;5050738;28;19924;-81
2022/03/19 12:07:57;;;;;;;;;;;30.70;95.40;;;;;;5051531;28;20281;-83
2022/03/19 12:10:24;;;;;;;;;;;31.00;94.20;;;;;;5051053;28;19924;-82
2022/03/19 12:12:53;;;;;;;;;;;32.00;93.10;;;;;;5051298;28;19952;-81
2022/03/19 12:15:38;;;;;;;;;;;31.00;90.80;;;;;;5050977;28;19955;-82
2022/03/19 12:18:25;;;;;;;;;;;31.20;89.50;;;;;;5085170;28;19928;-81
2022/03/19 12:20:54;;;;;;;;;;;31.20;86.20;;;;;;5050219;28;19928;-81
2022/03/19 12:23:21;;;;;;;;;;;30.20;85.80;;;;;;5051838;28;19935;-80
2022/03/19 12:25:51;;;;;;;;;;;29.90;82.60;;;;;;5050371;28;19925;-80
2022/03/19 12:28:20;;;;;;;;;;;29.50;82.00;;;;;;5050740;28;19964;-81
2022/03/19 12:30:50;;;;;;;;;;;29.00;81.10;;;;;;5050411;28;19933;-82
2022/03/19 12:33:17;;;;;;;;;;;29.10;79.70;;;;;;5051385;28;19924;-82
2022/03/19 12:35:46;;;;;;;;;;;29.00;77.20;;;;;;5051307;28;19947;-82
2022/03/19 12:38:23;;;;;;;;;;;29.00;78.40;;;;;;5051399;28;19924;-82
2022/03/19 12:43:43;;;;;;;;;;;29.30;80.70;;;;;;5042144;28;19920;-82
2022/03/19 12:46:11;;;;;;;;;;;29.50;77.90;;;;;;5053064;28;19983;-82
2022/03/19 12:48:41;;;;;;;;;;;29.40;79.90;;;;;;5053369;28;19933;-82
2022/03/19 12:51:08;;;;;;;;;;;29.80;80.80;;;;;;5052877;28;19939;-83
2022/03/19 12:53:36;;;;;;;;;;;29.40;81.00;;;;;;5051918;28;19947;-82
2022/03/19 12:56:13;;;;;;;;;;;28.90;81.40;;;;;;5052177;28;19925;-82
2022/03/19 12:58:41;;;;;;;;;;;28.30;78.70;;;;;;5052183;28;19928;-83
2022/03/19 13:01:12;;;;;;;;;;;27.60;79.10;;;;;;5051250;28;19979;-83
2022/03/19 13:03:39;;;;;;;;;;;28.00;80.70;;;;;;5051889;28;19954;-82
2022/03/19 13:06:06;;;;;;;;;;;28.30;81.10;;;;;;5052279;28;19925;-82
2022/03/19 13:08:43;;;;;;;;;;;27.50;78.60;;;;;;5052014;28;19931;-82
2022/03/19 13:11:12;;;;;;;;;;;26.80;77.70;;;;;;5052459;28;19931;-82
2022/03/19 13:13:40;;;;;;;;;;;26.40;75.80;;;;;;5051660;28;19936;-82
2022/03/19 13:16:08;;;;;;;;;;;25.90;76.10;;;;;;5052076;28;19925;-83
2022/03/19 13:18:37;;;;;;;;;;;26.30;77.50;;;;;;5051273;28;20311;-81
2022/03/19 13:21:07;;;;;;;;;;;26.10;80.00;;;;;;5051255;28;20431;-82
2022/03/19 13:23:34;;;;;;;;;;;25.60;80.70;;;;;;5052369;28;19964;-81
2022/03/19 13:26:01;;;;;;;;;;;25.30;78.90;;;;;;5052248;28;19925;-83
2022/03/19 13:28:29;;;;;;;;;;;25.60;78.90;;;;;;5051592;28;19960;-83
2022/03/19 13:30:58;;;;;;;;;;;25.10;78.70;;;;;;5050429;28;19929;-82
2022/03/19 13:33:30;;;;;;;;;;;23.90;80.10;;;;;;5050909;28;20261;-81
2022/03/19 13:35:58;;;;;;;;;;;24.60;81.70;;;;;;5052286;28;19925;-81
2022/03/19 13:38:25;;;;;;;;;;;24.20;80.00;;;;;;5051390;28;19940;-82
2022/03/19 13:40:55;;;;;;;;;;;23.80;81.40;;;;;;5051393;28;19925;-83
2022/03/19 13:43:26;;;;;;;;;;;23.60;80.60;;;;;;5051321;28;19929;-81
2022/03/19 13:46:08;;;;;;;;;;;24.00;81.40;;;;;;5051674;28;19924;-82
2022/03/19 13:48:35;;;;;;;;;;;24.10;80.90;;;;;;5051138;28;19932;-84
2022/03/19 13:51:03;;;;;;;;;;;23.20;80.40;;;;;;5051395;28;19983;-81
2022/03/19 13:53:40;;;;;;;;;;;23.10;81.10;;;;;;5051616;28;19975;-83
2022/03/19 13:56:07;;;;;;;;;;;22.80;80.20;;;;;;5051053;28;19996;-81
2022/03/19 13:58:34;;;;;;;;;;;22.30;79.40;;;;;;5051629;28;19925;-81
2022/03/19 14:01:10;;;;;;;;;;;22.10;79.70;;;;;;5051359;28;19932;-83
2022/03/19 14:03:40;;;;;;;;;;;22.00;80.40;;;;;;5051280;28;19925;-81
2022/03/19 14:06:09;;;;;;;;;;;22.30;80.90;;;;;;5051607;28;19924;-84
2022/03/19 14:08:37;;;;;;;;;;;22.60;79.50;;;;;;5051358;28;20524;-82
2022/03/19 14:11:11;;;;;;;;;;;22.90;79.00;;;;;;5051786;28;19925;-84
2022/03/19 14:13:41;;;;;;;;;;;22.80;79.90;;;;;;5052587;28;19920;-83
2022/03/19 14:16:08;;;;;;;;;;;23.40;80.40;;;;;;5051607;28;20406;-83
2022/03/19 14:18:36;;;;;;;;;;;23.30;78.60;;;;;;5051624;28;19925;-81
2022/03/19 14:21:08;;;;;;;;;;;22.60;78.70;;;;;;5050816;28;20388;-81
2022/03/19 14:23:37;;;;;;;;;;;22.00;79.10;;;;;;5051447;28;19964;-82
2022/03/19 14:26:04;;;;;;;;;;;22.00;79.00;;;;;;5052014;28;19932;-81
2022/03/19 14:28:31;;;;;;;;;;;21.50;78.00;;;;;;5051008;28;19928;-82
2022/03/19 14:30:58;;;;;;;;;;;21.60;79.60;;;;;;5051334;28;19925;-82
2022/03/19 14:33:25;;;;;;;;;;;21.50;79.20;;;;;;5051072;28;19959;-80
2022/03/19 14:35:53;;;;;;;;;;;21.60;79.10;;;;;;5051347;28;19928;-82
2022/03/19 14:38:21;;;;;;;;;;;21.40;78.70;;;;;;5050937;28;19983;-82
2022/03/19 14:40:49;;;;;;;;;;;21.60;77.90;;;;;;5051043;28;19932;-83
2022/03/19 14:43:17;;;;;;;;;;;21.40;78.60;;;;;;5051038;28;19929;-81
2022/03/19 14:45:45;;;;;;;;;;;22.20;79.00;;;;;;5050880;28;19925;-83
2022/03/19 14:48:12;;;;;;;;;;;22.30;78.70;;;;;;5051197;28;19925;-84